createdAt,value
2018-02-17T00:01:21.662Z,86.18
2018-02-17T00:03:47.557Z,86.39
2018-02-17T00:06:13.522Z,86.51
2018-02-17T00:08:39.428Z,87.08
2018-02-17T00:11:05.294Z,87.19
2018-02-17T00:13:31.162Z,87.45
2018-02-17T00:15:57.093Z,87.47
2018-02-17T00:18:23.085Z,87.56
2018-02-17T00:20:49.002Z,87.31
2018-02-17T00:23:14.905Z,87.17
2018-02-17T00:25:40.763Z,87.07
2018-02-17T00:28:06.636Z,87.06
2018-02-17T00:30:32.655Z,87.10
2018-02-17T00:32:58.504Z,86.81
2018-02-17T00:35:24.354Z,87.07
2018-02-17T00:37:50.264Z,87.08
2018-02-17T00:40:16.138Z,86.71
2018-02-17T00:42:42.089Z,86.57
2018-02-17T00:45:08.322Z,86.88
2018-02-17T00:47:34.218Z,86.87
2018-02-17T00:50:00.069Z,86.91
2018-02-17T00:52:25.974Z,86.59
2018-02-17T00:54:51.917Z,86.83
2018-02-17T00:57:17.764Z,86.81
2018-02-17T00:59:43.660Z,86.95
2018-02-17T01:02:09.516Z,87.10
2018-02-17T01:04:35.407Z,87.25
2018-02-17T01:07:01.406Z,87.08
2018-02-17T01:09:27.252Z,87.16
2018-02-17T01:11:53.092Z,87.06
2018-02-17T01:14:19.057Z,87.35
2018-02-17T01:16:44.944Z,87.30
2018-02-17T01:19:10.910Z,87.32
2018-02-17T01:21:36.796Z,87.50
2018-02-17T01:24:02.662Z,87.87
2018-02-17T01:26:28.509Z,87.29
2018-02-17T01:28:54.423Z,86.70
2018-02-17T01:31:20.375Z,86.64
2018-02-17T01:33:46.227Z,86.33
2018-02-17T01:36:12.132Z,86.63
2018-02-17T01:38:37.991Z,86.61
2018-02-17T01:41:03.860Z,86.92
2018-02-17T01:43:29.896Z,87.01
2018-02-17T01:45:55.805Z,86.92
2018-02-17T01:48:21.640Z,87.66
2018-02-17T01:50:47.527Z,86.84
2018-02-17T01:53:13.414Z,87.12
2018-02-17T01:55:39.367Z,86.50
2018-02-17T01:58:05.272Z,87.17
2018-02-17T02:00:31.201Z,87.13
2018-02-17T02:02:57.051Z,86.51
2018-02-17T02:05:23.258Z,87.02
2018-02-17T02:07:49.204Z,86.39
2018-02-17T02:10:15.045Z,86.02
2018-02-17T02:12:40.936Z,86.64
2018-02-17T02:15:06.802Z,86.62
2018-02-17T02:17:32.708Z,86.47
2018-02-17T02:19:58.704Z,86.40
2018-02-17T02:22:24.569Z,86.26
2018-02-17T02:24:50.422Z,86.14
2018-02-17T02:27:16.476Z,86.01
2018-02-17T02:29:42.328Z,86.06
2018-02-17T02:32:08.257Z,86.22
2018-02-17T02:34:34.152Z,86.27
2018-02-17T02:37:00.314Z,86.06
2018-02-17T02:39:26.228Z,86.09
2018-02-17T02:41:52.116Z,86.05
2018-02-17T02:44:18.054Z,85.57
2018-02-17T02:46:43.896Z,84.89
2018-02-17T02:49:09.785Z,85.05
2018-02-17T02:51:35.641Z,84.07
2018-02-17T02:54:01.542Z,84.47
2018-02-17T02:56:27.529Z,84.00
2018-02-17T02:58:53.385Z,82.97
2018-02-17T03:01:19.340Z,82.92
2018-02-17T03:03:45.238Z,83.02
2018-02-17T03:06:11.149Z,83.51
2018-02-17T03:08:37.165Z,83.11
2018-02-17T03:11:03.052Z,82.70
2018-02-17T03:13:28.906Z,82.67
2018-02-17T03:15:54.762Z,83.20
2018-02-17T03:18:20.713Z,83.28
2018-02-17T03:20:46.688Z,83.08
2018-02-17T03:23:12.545Z,82.47
2018-02-17T03:25:38.444Z,82.66
2018-02-17T03:28:04.309Z,82.78
2018-02-17T03:30:30.216Z,82.05
2018-02-17T03:32:56.516Z,82.34
2018-02-17T03:35:22.374Z,82.45
2018-02-17T03:37:48.224Z,82.64
2018-02-17T03:40:14.133Z,82.85
2018-02-17T03:42:40.034Z,82.93
2018-02-17T03:45:05.985Z,83.28
2018-02-17T03:47:31.886Z,83.57
2018-02-17T03:49:57.769Z,83.20
2018-02-17T03:52:23.615Z,83.16
2018-02-17T03:54:49.559Z,82.36
2018-02-17T03:57:15.516Z,82.78
2018-02-17T03:59:41.384Z,82.83
2018-02-17T04:02:07.378Z,81.78
2018-02-17T04:04:33.224Z,81.55
2018-02-17T04:06:59.142Z,81.98
2018-02-17T04:09:25.520Z,82.37
2018-02-17T04:11:51.456Z,82.15
2018-02-17T04:14:17.301Z,82.18
2018-02-17T04:16:43.274Z,82.00
2018-02-17T04:19:09.218Z,81.83
2018-02-17T04:21:35.156Z,81.99
2018-02-17T04:24:01.061Z,82.08
2018-02-17T04:26:26.915Z,81.48
2018-02-17T04:28:52.798Z,82.17
2018-02-17T04:31:18.755Z,82.52
2018-02-17T04:33:44.669Z,82.60
2018-02-17T04:36:10.504Z,83.10
2018-02-17T04:38:36.431Z,83.28
2018-02-17T04:41:06.354Z,82.71
2018-02-17T04:43:33.190Z,82.43
2018-02-17T04:46:15.397Z,82.54
2018-02-17T04:48:43.343Z,82.63
2018-02-17T04:54:19.105Z,83.14
2018-02-17T04:56:50.116Z,83.26
2018-02-17T04:59:17.935Z,83.53
2018-02-17T05:01:45.577Z,83.26
2018-02-17T05:04:12.333Z,83.45
2018-02-17T05:06:42.192Z,83.03
2018-02-17T05:09:08.145Z,83.69
2018-02-17T05:11:34.049Z,84.16
2018-02-17T05:14:00.879Z,82.05
2018-02-17T05:16:37.203Z,82.62
2018-02-17T05:22:07.796Z,83.35
2018-02-17T05:24:34.493Z,82.83
2018-02-17T05:27:01.564Z,82.37
2018-02-17T05:29:29.329Z,81.66
2018-02-17T05:31:55.191Z,81.26
2018-02-17T05:34:27.274Z,81.87
2018-02-17T05:36:55.022Z,81.82
2018-02-17T05:39:26.953Z,81.36
2018-02-17T05:42:12.965Z,81.99
2018-02-17T05:44:38.921Z,81.94
2018-02-17T05:47:05.795Z,81.88
2018-02-17T05:52:37.994Z,81.11
2018-02-17T05:55:04.141Z,81.55
2018-02-17T05:57:29.997Z,80.99
2018-02-17T05:59:55.902Z,80.81
2018-02-17T06:02:22.263Z,81.54
2018-02-17T06:04:48.127Z,82.15
2018-02-17T06:07:14.060Z,81.51
2018-02-17T06:09:39.956Z,81.15
2018-02-17T06:12:05.906Z,81.89
2018-02-17T06:14:31.764Z,81.46
2018-02-17T06:16:57.672Z,80.25
2018-02-17T06:19:23.683Z,80.02
2018-02-17T06:21:49.528Z,80.98
2018-02-17T06:24:15.468Z,80.52
2018-02-17T06:26:41.331Z,81.31
2018-02-17T06:29:07.178Z,80.72
2018-02-17T06:31:33.165Z,81.44
2018-02-17T06:33:59.384Z,81.31
2018-02-17T06:36:25.312Z,80.51
2018-02-17T06:38:51.196Z,80.45
2018-02-17T06:41:17.144Z,80.54
2018-02-17T06:43:43.097Z,80.95
2018-02-17T06:46:08.984Z,80.65
2018-02-17T06:48:34.890Z,80.82
2018-02-17T06:51:00.768Z,80.33
2018-02-17T06:53:26.647Z,79.01
2018-02-17T06:55:52.564Z,80.02
2018-02-17T06:58:18.406Z,79.17
2018-02-17T07:00:44.353Z,79.56
2018-02-17T07:03:10.201Z,80.05
2018-02-17T07:05:36.053Z,78.24
2018-02-17T07:08:02.047Z,78.66
2018-02-17T07:10:27.902Z,79.10
2018-02-17T07:12:53.793Z,79.20
2018-02-17T07:15:20.046Z,78.29
2018-02-17T07:17:45.891Z,76.79
2018-02-17T07:20:11.830Z,77.46
2018-02-17T07:22:37.712Z,76.31
2018-02-17T07:25:03.725Z,76.35
2018-02-17T07:27:29.587Z,76.85
2018-02-17T07:29:55.488Z,75.70
2018-02-17T07:32:21.415Z,75.70
2018-02-17T07:34:47.258Z,76.75
2018-02-17T07:37:13.205Z,77.28
2018-02-17T07:39:39.952Z,76.82
2018-02-17T07:42:05.797Z,76.92
2018-02-17T07:44:31.776Z,76.50
2018-02-17T07:47:04.560Z,75.73
2018-02-17T07:49:30.471Z,74.57
2018-02-17T07:51:56.715Z,75.29
2018-02-17T07:54:22.584Z,75.00
2018-02-17T07:56:48.539Z,75.97
2018-02-17T07:59:14.448Z,76.58
2018-02-17T08:01:40.357Z,77.06
2018-02-17T08:04:06.292Z,76.60
2018-02-17T08:06:32.205Z,76.45
2018-02-17T08:08:58.141Z,75.99
2018-02-17T08:11:23.980Z,75.68
2018-02-17T08:13:49.920Z,76.13
2018-02-17T08:16:15.761Z,75.48
2018-02-17T08:18:41.612Z,75.51
2018-02-17T08:21:07.584Z,75.21
2018-02-17T08:23:33.536Z,75.45
2018-02-17T08:25:59.757Z,75.80
2018-02-17T08:28:25.662Z,75.62
2018-02-17T08:30:51.520Z,75.34
2018-02-17T08:33:17.458Z,75.37
2018-02-17T08:35:43.369Z,76.02
2018-02-17T08:38:09.269Z,75.79
2018-02-17T08:40:35.161Z,75.71
2018-02-17T08:43:01.068Z,75.46
2018-02-17T08:45:27.013Z,74.77
2018-02-17T08:47:52.906Z,74.96
2018-02-17T08:50:18.848Z,74.95
2018-02-17T08:52:44.684Z,75.19
2018-02-17T08:55:10.536Z,75.31
2018-02-17T08:57:36.508Z,74.72
2018-02-17T09:00:02.380Z,74.09
2018-02-17T09:02:28.272Z,74.54
2018-02-17T09:04:54.179Z,74.50
2018-02-17T09:07:20.008Z,73.84
2018-02-17T09:09:45.916Z,73.99
2018-02-17T09:12:11.861Z,73.79
2018-02-17T09:14:37.752Z,73.06
2018-02-17T09:17:03.613Z,73.46
2018-02-17T09:19:29.577Z,73.09
2018-02-17T09:21:55.471Z,73.23
2018-02-17T09:24:21.337Z,72.42
2018-02-17T09:26:47.280Z,72.65
2018-02-17T09:29:13.118Z,72.08
2018-02-17T09:31:39.020Z,71.77
2018-02-17T09:34:05.794Z,71.17
2018-02-17T09:36:31.639Z,70.39
2018-02-17T09:38:57.552Z,71.07
2018-02-17T09:41:23.462Z,71.06
2018-02-17T09:43:49.355Z,69.67
2018-02-17T09:46:15.269Z,69.27
2018-02-17T09:48:41.152Z,70.16
2018-02-17T09:51:07.050Z,69.02
2018-02-17T09:53:32.908Z,69.14
2018-02-17T09:55:58.861Z,69.56
2018-02-17T09:58:24.773Z,68.34
2018-02-17T10:00:50.634Z,67.58
2018-02-17T10:03:16.588Z,67.62
2018-02-17T10:05:42.432Z,67.47
2018-02-17T10:08:08.324Z,67.36
2018-02-17T10:10:34.264Z,67.68
2018-02-17T10:13:00.096Z,67.84
2018-02-17T10:15:25.992Z,67.37
2018-02-17T10:17:51.971Z,67.59
2018-02-17T10:20:17.860Z,68.23
2018-02-17T10:22:43.809Z,67.92
2018-02-17T10:25:09.702Z,66.62
2018-02-17T10:27:35.623Z,66.61
2018-02-17T10:30:01.493Z,66.26
2018-02-17T10:32:27.472Z,66.44
2018-02-17T10:34:53.381Z,66.76
2018-02-17T10:37:19.217Z,67.06
2018-02-17T10:39:45.158Z,66.91
2018-02-17T10:42:10.987Z,67.16
2018-02-17T10:44:36.880Z,67.50
2018-02-17T10:47:09.709Z,67.05
2018-02-17T10:49:35.561Z,66.83
2018-02-17T10:52:01.464Z,66.98
2018-02-17T10:54:27.355Z,66.28
2018-02-17T10:56:53.263Z,66.66
2018-02-17T10:59:19.165Z,66.88
2018-02-17T11:01:45.061Z,67.05
2018-02-17T11:04:10.986Z,66.68
2018-02-17T11:06:36.828Z,67.08
2018-02-17T11:09:02.800Z,66.56
2018-02-17T11:11:28.800Z,67.04
2018-02-17T11:13:54.654Z,66.61
2018-02-17T11:16:20.642Z,65.63
2018-02-17T11:18:46.492Z,65.23
2018-02-17T11:21:12.379Z,65.36
2018-02-17T11:23:38.344Z,64.58
2018-02-17T11:26:04.194Z,63.99
2018-02-17T11:28:30.110Z,64.65
2018-02-17T11:30:56.001Z,64.77
2018-02-17T11:33:21.902Z,64.67
2018-02-17T11:35:47.839Z,64.61
2018-02-17T11:38:13.712Z,64.52
2018-02-17T11:40:39.621Z,64.60
2018-02-17T11:43:05.455Z,64.34
2018-02-17T11:45:31.514Z,63.97
2018-02-17T11:47:57.437Z,63.03
2018-02-17T11:50:23.276Z,62.31
2018-02-17T11:52:49.228Z,61.96
2018-02-17T11:55:15.084Z,61.79
2018-02-17T11:57:41.022Z,61.40
2018-02-17T12:00:07.076Z,60.94
2018-02-17T12:02:32.965Z,60.82
2018-02-17T12:04:58.878Z,60.94
2018-02-17T12:07:24.778Z,60.31
2018-02-17T12:09:50.784Z,60.52
2018-02-17T12:12:16.696Z,60.64
2018-02-17T12:14:42.582Z,60.56
2018-02-17T12:17:08.486Z,60.11
2018-02-17T12:19:34.331Z,60.98
2018-02-17T12:22:00.270Z,60.02
2018-02-17T12:24:26.184Z,60.37
2018-02-17T12:26:52.025Z,60.25
2018-02-17T12:29:17.988Z,60.51
2018-02-17T12:31:43.820Z,61.22
2018-02-17T12:34:09.717Z,61.22
2018-02-17T12:36:35.678Z,60.92
2018-02-17T12:39:01.557Z,61.15
2018-02-17T12:41:27.460Z,61.68
2018-02-17T12:43:53.348Z,61.00
2018-02-17T12:46:19.236Z,61.16
2018-02-17T12:48:45.126Z,61.09
2018-02-17T12:51:11.008Z,61.13
2018-02-17T12:53:36.909Z,60.53
2018-02-17T12:56:02.762Z,61.07
2018-02-17T12:58:28.708Z,61.29
2018-02-17T13:00:54.617Z,60.92
2018-02-17T13:03:20.460Z,61.01
2018-02-17T13:05:46.406Z,61.11
2018-02-17T13:08:12.262Z,60.79
2018-02-17T13:10:38.159Z,59.94
2018-02-17T13:13:04.141Z,60.29
2018-02-17T13:15:30.007Z,60.36
2018-02-17T13:17:55.960Z,60.93
2018-02-17T13:20:21.838Z,62.06
2018-02-17T13:22:47.737Z,62.49
2018-02-17T13:25:13.670Z,61.68
2018-02-17T13:27:39.566Z,62.65
2018-02-17T13:30:05.551Z,63.13
2018-02-17T13:32:31.388Z,62.41
2018-02-17T13:34:57.316Z,63.27
2018-02-17T13:37:23.233Z,63.08
2018-02-17T13:39:49.076Z,63.46
2018-02-17T13:42:15.020Z,63.64
2018-02-17T13:44:40.865Z,64.30
2018-02-17T13:47:06.764Z,64.06
2018-02-17T13:49:32.729Z,64.30
2018-02-17T13:51:58.570Z,64.92
2018-02-17T13:54:24.474Z,65.09
2018-02-17T13:56:50.378Z,65.67
2018-02-17T13:59:16.297Z,65.71
2018-02-17T14:01:42.270Z,65.96
2018-02-17T14:04:08.167Z,65.66
2018-02-17T14:06:34.074Z,65.57
2018-02-17T14:08:59.927Z,65.74
2018-02-17T14:11:25.873Z,65.48
2018-02-17T14:13:51.855Z,65.47
2018-02-17T14:16:17.685Z,65.13
2018-02-17T14:18:43.630Z,65.15
2018-02-17T14:21:09.467Z,65.12
2018-02-17T14:23:35.363Z,64.95
2018-02-17T14:26:01.317Z,65.07
2018-02-17T14:28:27.156Z,64.79
2018-02-17T14:30:53.104Z,65.06
2018-02-17T14:33:18.984Z,65.20
2018-02-17T14:35:44.890Z,65.58
2018-02-17T14:38:10.814Z,65.16
2018-02-17T14:40:36.707Z,64.28
2018-02-17T14:43:02.630Z,63.99
2018-02-17T14:45:35.488Z,64.51
2018-02-17T14:48:01.420Z,63.86
2018-02-17T14:50:27.341Z,64.07
2018-02-17T14:52:53.204Z,64.54
2018-02-17T14:55:19.185Z,63.65
2018-02-17T14:57:45.058Z,64.07
2018-02-17T15:00:10.962Z,64.48
2018-02-17T15:02:36.916Z,63.82
2018-02-17T15:05:02.770Z,64.43
2018-02-17T15:07:28.682Z,64.47
2018-02-17T15:09:54.620Z,65.03
2018-02-17T15:12:20.488Z,64.93
2018-02-17T15:14:46.396Z,64.52
2018-02-17T15:17:12.288Z,65.11
2018-02-17T15:19:38.250Z,64.43
2018-02-17T15:22:04.104Z,65.43
2018-02-17T15:24:30.052Z,65.09
2018-02-17T15:26:55.952Z,65.31
2018-02-17T15:29:21.808Z,65.27
2018-02-17T15:31:49.664Z,65.93
2018-02-17T15:34:15.609Z,66.39
2018-02-17T15:36:41.514Z,66.94
2018-02-17T15:39:07.471Z,67.75
2018-02-17T15:41:33.325Z,67.53
2018-02-17T15:43:59.279Z,67.33
2018-02-17T15:46:25.162Z,67.62
2018-02-17T15:48:51.052Z,68.19
2018-02-17T15:51:16.965Z,68.55
2018-02-17T15:53:42.857Z,68.71
2018-02-17T15:56:08.760Z,68.44
2018-02-17T15:58:34.618Z,68.87
2018-02-17T16:01:00.569Z,69.29
2018-02-17T16:03:26.587Z,69.52
2018-02-17T16:05:52.432Z,70.07
2018-02-17T16:08:18.375Z,70.17
2018-02-17T16:10:44.253Z,68.91
2018-02-17T16:13:10.150Z,69.54
2018-02-17T16:15:36.100Z,69.65
2018-02-17T16:18:02.022Z,69.51
2018-02-17T16:20:27.953Z,70.03
2018-02-17T16:22:53.866Z,70.75
2018-02-17T16:25:19.755Z,71.26
2018-02-17T16:27:45.666Z,70.89
2018-02-17T16:30:11.570Z,70.58
2018-02-17T16:32:37.536Z,71.05
2018-02-17T16:35:03.394Z,71.64
2018-02-17T16:37:29.336Z,71.65
2018-02-17T16:39:55.241Z,71.61
2018-02-17T16:42:21.080Z,71.58
2018-02-17T16:44:47.016Z,71.79
2018-02-17T16:47:12.848Z,72.01
2018-02-17T16:49:38.733Z,71.94
2018-02-17T16:52:04.681Z,72.08
2018-02-17T16:54:30.537Z,72.48
2018-02-17T16:56:56.437Z,72.83
2018-02-17T16:59:22.328Z,72.59
2018-02-17T17:01:48.212Z,72.91
2018-02-17T17:04:14.117Z,72.77
2018-02-17T17:06:40.016Z,72.91
2018-02-17T17:09:05.920Z,72.87
2018-02-17T17:11:31.789Z,73.34
2018-02-17T17:13:57.745Z,73.07
2018-02-17T17:16:23.756Z,73.34
2018-02-17T17:18:49.606Z,73.89
2018-02-17T17:21:15.858Z,74.06
2018-02-17T17:23:41.704Z,74.49
2018-02-17T17:26:07.599Z,74.98
2018-02-17T17:28:33.552Z,74.43
2018-02-17T17:30:59.401Z,74.50
2018-02-17T17:33:25.304Z,74.04
2018-02-17T17:35:51.213Z,74.04
2018-02-17T17:38:17.106Z,73.98
2018-02-17T17:40:43.053Z,74.55
2018-02-17T17:43:08.944Z,74.71
2018-02-17T17:45:34.849Z,75.10
2018-02-17T17:48:00.725Z,75.28
2018-02-17T17:50:26.673Z,75.20
2018-02-17T17:52:52.587Z,75.50
2018-02-17T17:55:18.442Z,75.89
2018-02-17T17:57:44.760Z,76.07
2018-02-17T18:00:10.650Z,75.87
2018-02-17T18:02:36.555Z,76.13
2018-02-17T18:08:00.246Z,76.16
2018-02-17T18:10:26.102Z,75.71
2018-02-17T18:12:52.082Z,75.61
2018-02-17T18:15:17.986Z,75.73
2018-02-17T18:17:43.844Z,75.59
2018-02-17T18:20:09.886Z,75.88
2018-02-17T18:22:35.745Z,75.81
2018-02-17T18:25:01.649Z,75.71
2018-02-17T18:27:27.500Z,75.71
2018-02-17T18:29:53.406Z,76.08
2018-02-17T18:32:19.395Z,76.06
2018-02-17T18:34:45.248Z,76.19
2018-02-17T18:37:11.191Z,76.08
2018-02-17T18:39:37.041Z,76.28
2018-02-17T18:42:02.902Z,76.44
2018-02-17T18:44:28.957Z,76.43
2018-02-17T18:46:54.818Z,76.47
2018-02-17T18:49:20.725Z,76.63
2018-02-17T18:51:46.624Z,76.44
2018-02-17T18:54:12.471Z,76.37
2018-02-17T18:56:38.457Z,76.58
2018-02-17T18:59:04.348Z,76.75
2018-02-17T19:01:30.287Z,76.82
2018-02-17T19:03:56.155Z,76.88
2018-02-17T19:06:22.118Z,77.02
2018-02-17T19:08:48.089Z,77.12
2018-02-17T19:11:14.230Z,76.82
2018-02-17T19:13:40.770Z,76.91
2018-02-17T19:16:07.029Z,77.14
2018-02-17T19:18:33.393Z,77.02
2018-02-17T19:21:00.129Z,77.00
2018-02-17T19:23:26.469Z,77.22
2018-02-17T19:25:52.746Z,77.06
2018-02-17T19:28:19.048Z,77.16
2018-02-17T19:30:45.305Z,77.02
2018-02-17T19:33:11.340Z,77.33
2018-02-17T19:35:37.364Z,77.42
2018-02-17T19:38:03.675Z,77.53
2018-02-17T19:40:29.862Z,77.35
2018-02-17T19:42:56.088Z,77.53
2018-02-17T19:45:22.517Z,77.43
2018-02-17T19:47:48.793Z,77.37
2018-02-17T19:50:14.986Z,77.46
2018-02-17T19:52:40.864Z,77.39
2018-02-17T19:55:06.758Z,77.60
2018-02-17T19:57:32.812Z,77.67
2018-02-17T19:59:58.659Z,77.29
2018-02-17T20:02:25.208Z,77.45
2018-02-17T20:04:51.150Z,77.57
2018-02-17T20:07:17.230Z,77.59
2018-02-17T20:09:43.209Z,77.87
2018-02-17T20:12:09.346Z,77.81
2018-02-17T20:14:35.273Z,77.98
2018-02-17T20:17:01.240Z,78.04
2018-02-17T20:19:27.123Z,77.91
2018-02-17T20:21:53.103Z,77.70
2018-02-17T20:24:19.033Z,77.81
2018-02-17T20:26:45.013Z,77.66
2018-02-17T20:29:10.868Z,78.02
2018-02-17T20:31:36.699Z,78.26
2018-02-17T20:34:03.030Z,78.25
2018-02-17T20:36:28.894Z,78.18
2018-02-17T20:38:54.802Z,77.97
2018-02-17T20:41:20.790Z,77.67
2018-02-17T20:43:46.645Z,77.98
2018-02-17T20:46:12.626Z,78.22
2018-02-17T20:48:38.529Z,78.33
2018-02-17T20:51:04.440Z,78.45
2018-02-17T20:53:30.284Z,78.52
2018-02-17T20:55:56.193Z,78.52
2018-02-17T20:58:22.156Z,78.55
2018-02-17T21:00:47.996Z,78.15
2018-02-17T21:03:13.953Z,78.18
2018-02-17T21:05:39.800Z,78.32
2018-02-17T21:08:05.653Z,78.47
2018-02-17T21:10:31.672Z,78.23
2018-02-17T21:12:57.536Z,78.32
2018-02-17T21:15:23.436Z,78.49
2018-02-17T21:17:49.330Z,78.21
2018-02-17T21:20:15.201Z,78.08
2018-02-17T21:22:41.186Z,78.02
2018-02-17T21:25:07.072Z,77.95
2018-02-17T21:27:32.973Z,77.58
2018-02-17T21:29:58.821Z,76.75
2018-02-17T21:32:25.065Z,77.15
2018-02-17T21:34:51.045Z,76.95
2018-02-17T21:37:16.884Z,77.10
2018-02-17T21:39:42.820Z,76.81
2018-02-17T21:42:08.666Z,76.51
2018-02-17T21:44:34.512Z,76.64
2018-02-17T21:47:00.559Z,76.69
2018-02-17T21:49:26.400Z,76.46
2018-02-17T21:51:52.306Z,76.01
2018-02-17T21:54:18.209Z,76.25
2018-02-17T21:56:44.057Z,76.18
2018-02-17T21:59:10.132Z,76.24
2018-02-17T22:01:36.060Z,76.19
2018-02-17T22:04:01.967Z,76.51
2018-02-17T22:06:28.163Z,76.53
2018-02-17T22:08:54.137Z,76.63
2018-02-17T22:11:20.113Z,76.53
2018-02-17T22:13:45.960Z,76.15
2018-02-17T22:16:11.904Z,76.55
2018-02-17T22:18:37.768Z,76.36
2018-02-17T22:21:03.614Z,76.76
2018-02-17T22:23:29.636Z,76.49
2018-02-17T22:25:55.490Z,76.36
2018-02-17T22:28:21.393Z,76.12
2018-02-17T22:30:47.296Z,76.29
2018-02-17T22:33:13.162Z,76.19
2018-02-17T22:35:39.132Z,76.28
2018-02-17T22:38:05.020Z,76.19
2018-02-17T22:40:30.912Z,76.17
2018-02-17T22:42:56.778Z,76.32
2018-02-17T22:45:22.694Z,76.37
2018-02-17T22:47:48.703Z,76.33
2018-02-17T22:50:14.562Z,76.46
2018-02-17T22:52:40.550Z,76.40
2018-02-17T22:55:06.388Z,76.66
2018-02-17T22:57:32.234Z,76.75
2018-02-17T22:59:58.255Z,76.99
2018-02-17T23:02:24.113Z,77.04
2018-02-17T23:04:50.013Z,77.17
2018-02-17T23:07:16.246Z,77.44
2018-02-17T23:09:42.096Z,77.58
2018-02-17T23:12:08.078Z,77.69
2018-02-17T23:14:33.960Z,77.64
2018-02-17T23:16:59.876Z,77.78
2018-02-17T23:19:25.732Z,77.53
2018-02-17T23:21:51.641Z,77.60
2018-02-17T23:24:17.621Z,77.72
2018-02-17T23:26:43.456Z,77.65
2018-02-17T23:29:09.392Z,77.74
2018-02-17T23:31:35.323Z,77.69
2018-02-17T23:34:01.157Z,77.75
2018-02-17T23:36:27.169Z,77.99
2018-02-17T23:38:53.020Z,77.98
2018-02-17T23:41:18.913Z,77.56
2018-02-17T23:43:44.807Z,78.03
2018-02-17T23:46:10.652Z,78.09
2018-02-17T23:48:36.621Z,78.14
2018-02-17T23:51:02.516Z,78.24
2018-02-17T23:53:28.418Z,77.82
2018-02-17T23:55:54.269Z,77.50
2018-02-17T23:58:20.162Z,77.31
